CheckWX is a tool to help pilots better visualize weather data.  It is not intended as a substitute for an official pre-flight weather briefing.

06:49:23 UTC

KLGB METAR
Long Beach / Daugherty Field / Airport
Long Beach, California, USA
Current

56 mins ago

KLGB 190553Z 00000KT 10SM CLR 21/16 A2988 RMK AO2 SLP117 T02110156 10256 20211 51005
Observed
Sep-19 @ 05:53 UTC
Visibility
10 SM
Flight Rules
VFR
Cloud Levels
  • Clear skies
Temperature
21°C / 70°F
Dewpoint
16°C / 61°F
Humidity
73%
Altimeter
29.88" Hg
Pressure
1011.82 hPa
Previous

2 hours ago

KLGB 190453Z 00000KT 10SM CLR 22/16 A2988 RMK AO2 SLP116 T02170161
Observed
Sep-19 @ 04:53 UTC
Visibility
10 SM
Flight Rules
VFR
Cloud Levels
  • Clear skies
Temperature
22°C / 72°F
Dewpoint
16°C / 61°F
Humidity
69%
Altimeter
29.88" Hg
Pressure
1011.82 hPa
Previous

3 hours ago

KLGB 190353Z 31004KT 10SM CLR 22/15 A2987 RMK AO2 SLP116 T02170150
Observed
Sep-19 @ 03:53 UTC
Wind
  • 310° at 4 KTS
Visibility
10 SM
Flight Rules
VFR
Cloud Levels
  • Clear skies
Temperature
22°C / 72°F
Dewpoint
15°C / 59°F
Humidity
65%
Altimeter
29.87" Hg
Pressure
1011.52 hPa